sensor_id;sensor_type;location;lat;lon;timestamp;pressure;altitude;pressure_sealevel;temperature;humidity
7376;BME280;3728;42.266;24.944;2023-05-19T00:00:38;99549.59;;;14.69;100.00
7376;BME280;3728;42.266;24.944;2023-05-19T00:03:06;99553.41;;;14.60;100.00
7376;BME280;3728;42.266;24.944;2023-05-19T00:05:35;99543.41;;;14.65;100.00
7376;BME280;3728;42.266;24.944;2023-05-19T00:08:07;99536.13;;;14.50;100.00
7376;BME280;3728;42.266;24.944;2023-05-19T00:10:37;99532.53;;;14.55;100.00
7376;BME280;3728;42.266;24.944;2023-05-19T00:13:05;99529.25;;;14.70;100.00
7376;BME280;3728;42.266;24.944;2023-05-19T00:15:34;99525.94;;;14.61;100.00
7376;BME280;3728;42.266;24.944;2023-05-19T00:18:02;99525.97;;;14.73;100.00
7376;BME280;3728;42.266;24.944;2023-05-19T00:20:29;99517.53;;;14.79;100.00
7376;BME280;3728;42.266;24.944;2023-05-19T00:22:57;99523.25;;;14.93;100.00
7376;BME280;3728;42.266;24.944;2023-05-19T00:25:25;99522.50;;;14.81;100.00
7376;BME280;3728;42.266;24.944;2023-05-19T00:27:53;99515.50;;;14.52;100.00
7376;BME280;3728;42.266;24.944;2023-05-19T00:30:20;99522.53;;;14.60;100.00
7376;BME280;3728;42.266;24.944;2023-05-19T00:32:48;99522.25;;;14.74;100.00
7376;BME280;3728;42.266;24.944;2023-05-19T00:35:16;99521.34;;;14.70;100.00
7376;BME280;3728;42.266;24.944;2023-05-19T00:37:43;99527.41;;;14.70;100.00
7376;BME280;3728;42.266;24.944;2023-05-19T00:40:12;99530.72;;;14.67;100.00
7376;BME280;3728;42.266;24.944;2023-05-19T00:42:40;99521.38;;;14.82;100.00
7376;BME280;3728;42.266;24.944;2023-05-19T00:45:08;99522.19;;;14.94;100.00
7376;BME280;3728;42.266;24.944;2023-05-19T00:47:39;99524.56;;;14.75;100.00
7376;BME280;3728;42.266;24.944;2023-05-19T00:50:07;99517.38;;;14.64;100.00
7376;BME280;3728;42.266;24.944;2023-05-19T00:52:35;99518.72;;;14.58;100.00
7376;BME280;3728;42.266;24.944;2023-05-19T00:55:02;99518.00;;;14.49;100.00
7376;BME280;3728;42.266;24.944;2023-05-19T00:57:30;99526.53;;;14.33;100.00
7376;BME280;3728;42.266;24.944;2023-05-19T00:59:58;99526.13;;;14.23;100.00
7376;BME280;3728;42.266;24.944;2023-05-19T01:02:26;99518.59;;;14.66;100.00
7376;BME280;3728;42.266;24.944;2023-05-19T01:04:56;99528.81;;;14.68;100.00
7376;BME280;3728;42.266;24.944;2023-05-19T01:07:23;99526.31;;;14.71;100.00
7376;BME280;3728;42.266;24.944;2023-05-19T01:09:51;99528.72;;;14.64;100.00
7376;BME280;3728;42.266;24.944;2023-05-19T01:12:19;99533.66;;;14.66;100.00
7376;BME280;3728;42.266;24.944;2023-05-19T01:14:47;99532.97;;;14.57;100.00
7376;BME280;3728;42.266;24.944;2023-05-19T01:17:23;99524.69;;;14.46;100.00
7376;BME280;3728;42.266;24.944;2023-05-19T01:20:05;99527.78;;;14.48;100.00
7376;BME280;3728;42.266;24.944;2023-05-19T01:25:36;99530.50;;;14.39;100.00
7376;BME280;3728;42.266;24.944;2023-05-19T01:29:01;99536.44;;;14.28;100.00
7376;BME280;3728;42.266;24.944;2023-05-19T01:31:48;99537.88;;;14.25;100.00
7376;BME280;3728;42.266;24.944;2023-05-19T01:34:17;99536.34;;;14.24;100.00
7376;BME280;3728;42.266;24.944;2023-05-19T01:36:47;99538.38;;;14.39;100.00
7376;BME280;3728;42.266;24.944;2023-05-19T01:39:17;99535.50;;;14.32;100.00
7376;BME280;3728;42.266;24.944;2023-05-19T01:41:46;99539.16;;;14.19;100.00
7376;BME280;3728;42.266;24.944;2023-05-19T01:44:14;99538.97;;;14.24;100.00
7376;BME280;3728;42.266;24.944;2023-05-19T01:46:43;99542.50;;;14.28;100.00
7376;BME280;3728;42.266;24.944;2023-05-19T01:49:12;99542.50;;;14.28;100.00
7376;BME280;3728;42.266;24.944;2023-05-19T01:51:40;99543.28;;;14.29;100.00
7376;BME280;3728;42.266;24.944;2023-05-19T01:54:07;99534.03;;;14.44;100.00
7376;BME280;3728;42.266;24.944;2023-05-19T02:05:54;99546.13;;;14.03;100.00
7376;BME280;3728;42.266;24.944;2023-05-19T02:11:00;99535.41;;;14.08;100.00
7376;BME280;3728;42.266;24.944;2023-05-19T02:13:36;99536.03;;;14.05;100.00
7376;BME280;3728;42.266;24.944;2023-05-19T02:16:06;99533.06;;;14.07;100.00
7376;BME280;3728;42.266;24.944;2023-05-19T02:18:33;99532.75;;;14.08;100.00
7376;BME280;3728;42.266;24.944;2023-05-19T02:21:01;99542.78;;;13.94;100.00
7376;BME280;3728;42.266;24.944;2023-05-19T02:23:29;99545.91;;;14.29;100.00
7376;BME280;3728;42.266;24.944;2023-05-19T02:25:57;99541.72;;;14.28;100.00
7376;BME280;3728;42.266;24.944;2023-05-19T02:28:24;99553.75;;;13.96;100.00
7376;BME280;3728;42.266;24.944;2023-05-19T02:30:53;99550.47;;;14.20;100.00
7376;BME280;3728;42.266;24.944;2023-05-19T02:33:21;99536.44;;;14.28;100.00
7376;BME280;3728;42.266;24.944;2023-05-19T02:35:51;99542.53;;;14.08;100.00
7376;BME280;3728;42.266;24.944;2023-05-19T02:38:22;99543.81;;;14.22;100.00
7376;BME280;3728;42.266;24.944;2023-05-19T02:40:51;99544.25;;;14.24;100.00
7376;BME280;3728;42.266;24.944;2023-05-19T02:43:19;99546.16;;;13.95;100.00
7376;BME280;3728;42.266;24.944;2023-05-19T02:45:46;99544.81;;;14.09;100.00
7376;BME280;3728;42.266;24.944;2023-05-19T02:48:14;99545.94;;;14.08;100.00
7376;BME280;3728;42.266;24.944;2023-05-19T02:50:41;99540.34;;;14.10;100.00
7376;BME280;3728;42.266;24.944;2023-05-19T02:53:09;99546.88;;;14.24;100.00
7376;BME280;3728;42.266;24.944;2023-05-19T02:55:36;99545.84;;;14.17;100.00
7376;BME280;3728;42.266;24.944;2023-05-19T02:58:04;99549.31;;;14.29;100.00
7376;BME280;3728;42.266;24.944;2023-05-19T03:00:32;99551.31;;;14.32;99.73
7376;BME280;3728;42.266;24.944;2023-05-19T03:03:00;99546.50;;;14.34;100.00
7376;BME280;3728;42.266;24.944;2023-05-19T03:05:29;99554.00;;;14.03;100.00
7376;BME280;3728;42.266;24.944;2023-05-19T03:07:57;99549.13;;;13.93;100.00
7376;BME280;3728;42.266;24.944;2023-05-19T03:10:25;99553.06;;;14.08;100.00
7376;BME280;3728;42.266;24.944;2023-05-19T03:12:52;99563.13;;;14.06;100.00
7376;BME280;3728;42.266;24.944;2023-05-19T03:15:26;99555.28;;;13.97;100.00
7376;BME280;3728;42.266;24.944;2023-05-19T03:17:54;99550.47;;;14.20;100.00
7376;BME280;3728;42.266;24.944;2023-05-19T03:20:22;99558.81;;;14.22;100.00
7376;BME280;3728;42.266;24.944;2023-05-19T03:22:50;99562.28;;;14.14;100.00
7376;BME280;3728;42.266;24.944;2023-05-19T03:25:18;99561.50;;;13.93;100.00
7376;BME280;3728;42.266;24.944;2023-05-19T03:27:45;99562.47;;;14.09;100.00
7376;BME280;3728;42.266;24.944;2023-05-19T03:30:13;99557.84;;;14.26;100.00
7376;BME280;3728;42.266;24.944;2023-05-19T03:32:55;99570.44;;;14.00;100.00
7376;BME280;3728;42.266;24.944;2023-05-19T03:35:23;99571.53;;;13.99;100.00
7376;BME280;3728;42.266;24.944;2023-05-19T03:37:51;99573.84;;;14.01;100.00
7376;BME280;3728;42.266;24.944;2023-05-19T03:40:19;99578.28;;;13.88;100.00
7376;BME280;3728;42.266;24.944;2023-05-19T03:42:48;99581.31;;;14.19;100.00
7376;BME280;3728;42.266;24.944;2023-05-19T03:45:15;99582.59;;;14.13;100.00
7376;BME280;3728;42.266;24.944;2023-05-19T03:47:47;99580.72;;;14.14;100.00
7376;BME280;3728;42.266;24.944;2023-05-19T03:50:32;99590.84;;;14.32;100.00
7376;BME280;3728;42.266;24.944;2023-05-19T03:53:10;99586.66;;;14.52;99.40
7376;BME280;3728;42.266;24.944;2023-05-19T03:55:39;99590.56;;;14.25;100.00
7376;BME280;3728;42.266;24.944;2023-05-19T03:58:07;99593.28;;;14.37;100.00
7376;BME280;3728;42.266;24.944;2023-05-19T04:00:39;99594.59;;;14.31;100.00
7376;BME280;3728;42.266;24.944;2023-05-19T04:03:07;99594.75;;;14.26;100.00
7376;BME280;3728;42.266;24.944;2023-05-19T04:05:35;99592.75;;;14.23;100.00
7376;BME280;3728;42.266;24.944;2023-05-19T04:08:02;99599.00;;;14.39;100.00
7376;BME280;3728;42.266;24.944;2023-05-19T04:10:30;99598.94;;;14.81;99.43
7376;BME280;3728;42.266;24.944;2023-05-19T04:12:58;99605.69;;;14.70;97.93
7376;BME280;3728;42.266;24.944;2023-05-19T04:15:26;99613.59;;;14.70;98.71
7376;BME280;3728;42.266;24.944;2023-05-19T04:17:54;99600.28;;;14.87;98.23
7376;BME280;3728;42.266;24.944;2023-05-19T04:20:22;99611.22;;;15.10;96.17
7376;BME280;3728;42.266;24.944;2023-05-19T04:22:49;99614.19;;;15.20;96.73
7376;BME280;3728;42.266;24.944;2023-05-19T04:25:17;99616.25;;;15.59;94.09
7376;BME280;3728;42.266;24.944;2023-05-19T04:27:45;99611.50;;;15.53;94.25
7376;BME280;3728;42.266;24.944;2023-05-19T04:30:14;99625.91;;;15.55;94.13
7376;BME280;3728;42.266;24.944;2023-05-19T04:32:50;99623.72;;;15.82;91.92
7376;BME280;3728;42.266;24.944;2023-05-19T04:35:18;99624.38;;;15.91;92.02
7376;BME280;3728;42.266;24.944;2023-05-19T04:37:46;99621.94;;;16.10;89.64
7376;BME280;3728;42.266;24.944;2023-05-19T04:40:20;99624.16;;;15.84;89.86
7376;BME280;3728;42.266;24.944;2023-05-19T04:42:50;99636.94;;;15.94;91.32
7376;BME280;3728;42.266;24.944;2023-05-19T04:45:18;99634.16;;;15.78;91.73
7376;BME280;3728;42.266;24.944;2023-05-19T04:47:49;99628.09;;;16.02;91.56
7376;BME280;3728;42.266;24.944;2023-05-19T04:50:21;99634.50;;;15.89;91.99
7376;BME280;3728;42.266;24.944;2023-05-19T04:52:49;99631.22;;;15.92;90.99
7376;BME280;3728;42.266;24.944;2023-05-19T04:55:17;99635.50;;;15.96;89.73
7376;BME280;3728;42.266;24.944;2023-05-19T04:57:46;99634.28;;;15.82;92.13
7376;BME280;3728;42.266;24.944;2023-05-19T05:00:14;99641.84;;;16.07;91.14
7376;BME280;3728;42.266;24.944;2023-05-19T05:02:53;99641.50;;;16.09;92.18
7376;BME280;3728;42.266;24.944;2023-05-19T05:05:25;99647.69;;;16.13;91.55
7376;BME280;3728;42.266;24.944;2023-05-19T05:07:52;99644.69;;;16.26;89.03
7376;BME280;3728;42.266;24.944;2023-05-19T05:10:24;99638.63;;;16.26;90.53
7376;BME280;3728;42.266;24.944;2023-05-19T05:12:53;99647.59;;;16.61;89.55
7376;BME280;3728;42.266;24.944;2023-05-19T05:15:21;99645.19;;;16.56;89.54
7376;BME280;3728;42.266;24.944;2023-05-19T05:17:50;99655.09;;;16.47;89.92
7376;BME280;3728;42.266;24.944;2023-05-19T05:20:19;99657.84;;;16.63;89.57
7376;BME280;3728;42.266;24.944;2023-05-19T05:22:48;99657.06;;;16.50;92.19
7376;BME280;3728;42.266;24.944;2023-05-19T05:25:16;99661.28;;;16.51;92.53
7376;BME280;3728;42.266;24.944;2023-05-19T05:27:44;99659.59;;;17.14;88.70
7376;BME280;3728;42.266;24.944;2023-05-19T05:30:12;99673.44;;;17.23;86.95
7376;BME280;3728;42.266;24.944;2023-05-19T05:32:41;99667.84;;;16.97;87.68
7376;BME280;3728;42.266;24.944;2023-05-19T05:35:22;99672.47;;;17.00;89.75
7376;BME280;3728;42.266;24.944;2023-05-19T05:37:51;99684.91;;;17.43;85.78
7376;BME280;3728;42.266;24.944;2023-05-19T05:40:22;99679.09;;;17.37;86.40
7376;BME280;3728;42.266;24.944;2023-05-19T05:42:51;99688.75;;;17.45;87.14
7376;BME280;3728;42.266;24.944;2023-05-19T05:45:22;99682.66;;;17.57;85.57
7376;BME280;3728;42.266;24.944;2023-05-19T05:47:51;99698.94;;;17.74;86.33
7376;BME280;3728;42.266;24.944;2023-05-19T05:50:19;99683.47;;;17.76;84.90
7376;BME280;3728;42.266;24.944;2023-05-19T05:52:49;99698.34;;;17.81;83.65
7376;BME280;3728;42.266;24.944;2023-05-19T05:55:18;99693.78;;;17.97;82.73
7376;BME280;3728;42.266;24.944;2023-05-19T05:57:48;99697.63;;;18.00;82.60
7376;BME280;3728;42.266;24.944;2023-05-19T06:00:16;99702.34;;;17.91;85.70
7376;BME280;3728;42.266;24.944;2023-05-19T06:02:50;99706.53;;;18.07;83.82
7376;BME280;3728;42.266;24.944;2023-05-19T06:05:18;99702.91;;;18.31;83.89
7376;BME280;3728;42.266;24.944;2023-05-19T06:07:47;99699.31;;;18.23;83.92
7376;BME280;3728;42.266;24.944;2023-05-19T06:10:22;99712.59;;;18.58;80.92
7376;BME280;3728;42.266;24.944;2023-05-19T06:12:53;99714.94;;;18.44;81.81
7376;BME280;3728;42.266;24.944;2023-05-19T06:15:22;99712.97;;;18.41;82.38
7376;BME280;3728;42.266;24.944;2023-05-19T06:18:01;99714.75;;;18.53;83.00
7376;BME280;3728;42.266;24.944;2023-05-19T06:20:29;99722.19;;;18.63;81.88
7376;BME280;3728;42.266;24.944;2023-05-19T06:23:17;99719.59;;;19.04;80.20
7376;BME280;3728;42.266;24.944;2023-05-19T06:25:45;99725.47;;;18.94;81.34
7376;BME280;3728;42.266;24.944;2023-05-19T06:28:12;99714.69;;;19.26;79.18
7376;BME280;3728;42.266;24.944;2023-05-19T06:30:40;99723.56;;;19.14;79.91
7376;BME280;3728;42.266;24.944;2023-05-19T06:33:32;99718.53;;;18.90;82.47
7376;BME280;3728;42.266;24.944;2023-05-19T06:36:00;99718.44;;;19.25;80.03
7376;BME280;3728;42.266;24.944;2023-05-19T06:38:28;99719.44;;;19.36;79.27
7376;BME280;3728;42.266;24.944;2023-05-19T06:40:57;99718.25;;;19.14;80.43
7376;BME280;3728;42.266;24.944;2023-05-19T06:43:25;99721.38;;;19.20;79.83
7376;BME280;3728;42.266;24.944;2023-05-19T06:46:00;99713.22;;;19.28;79.45
7376;BME280;3728;42.266;24.944;2023-05-19T06:48:31;99721.75;;;19.37;78.20
7376;BME280;3728;42.266;24.944;2023-05-19T06:50:59;99714.53;;;19.60;77.23
7376;BME280;3728;42.266;24.944;2023-05-19T06:53:27;99720.38;;;19.69;76.55
7376;BME280;3728;42.266;24.944;2023-05-19T06:55:55;99718.56;;;19.73;75.82
7376;BME280;3728;42.266;24.944;2023-05-19T06:58:29;99726.22;;;19.78;75.95
7376;BME280;3728;42.266;24.944;2023-05-19T07:00:58;99722.75;;;19.74;78.71
7376;BME280;3728;42.266;24.944;2023-05-19T07:03:31;99718.34;;;20.08;76.63
7376;BME280;3728;42.266;24.944;2023-05-19T07:05:59;99721.34;;;20.07;77.41
7376;BME280;3728;42.266;24.944;2023-05-19T07:08:27;99721.88;;;20.42;77.23
7376;BME280;3728;42.266;24.944;2023-05-19T07:10:58;99720.19;;;20.57;76.21
7376;BME280;3728;42.266;24.944;2023-05-19T07:13:27;99714.53;;;20.62;75.19
7376;BME280;3728;42.266;24.944;2023-05-19T07:15:55;99709.44;;;20.79;75.33
7376;BME280;3728;42.266;24.944;2023-05-19T07:18:24;99719.69;;;21.10;71.49
7376;BME280;3728;42.266;24.944;2023-05-19T07:20:51;99708.38;;;20.87;73.29
7376;BME280;3728;42.266;24.944;2023-05-19T07:23:19;99707.66;;;20.90;72.36
7376;BME280;3728;42.266;24.944;2023-05-19T07:25:47;99718.72;;;20.92;72.83
7376;BME280;3728;42.266;24.944;2023-05-19T07:28:17;99712.38;;;21.04;73.31
7376;BME280;3728;42.266;24.944;2023-05-19T07:30:45;99710.09;;;21.02;72.47
7376;BME280;3728;42.266;24.944;2023-05-19T07:33:13;99712.06;;;21.09;74.06
7376;BME280;3728;42.266;24.944;2023-05-19T07:35:41;99717.94;;;21.25;69.67
7376;BME280;3728;42.266;24.944;2023-05-19T07:38:09;99713.94;;;21.42;68.74
7376;BME280;3728;42.266;24.944;2023-05-19T07:40:37;99720.22;;;21.67;69.92
7376;BME280;3728;42.266;24.944;2023-05-19T07:43:05;99722.63;;;21.79;68.23
7376;BME280;3728;42.266;24.944;2023-05-19T07:45:32;99723.78;;;21.81;67.36
7376;BME280;3728;42.266;24.944;2023-05-19T07:48:00;99715.09;;;21.88;67.61
7376;BME280;3728;42.266;24.944;2023-05-19T07:50:31;99722.03;;;21.96;65.79
7376;BME280;3728;42.266;24.944;2023-05-19T07:52:58;99714.16;;;22.14;68.81
7376;BME280;3728;42.266;24.944;2023-05-19T07:55:26;99714.91;;;22.14;66.18
7376;BME280;3728;42.266;24.944;2023-05-19T07:57:54;99723.44;;;22.37;68.17
7376;BME280;3728;42.266;24.944;2023-05-19T08:00:22;99724.69;;;22.58;67.28
7376;BME280;3728;42.266;24.944;2023-05-19T08:02:50;99726.34;;;22.80;65.64
7376;BME280;3728;42.266;24.944;2023-05-19T08:05:18;99729.78;;;22.84;65.87
7376;BME280;3728;42.266;24.944;2023-05-19T08:07:46;99734.75;;;22.85;63.70
7376;BME280;3728;42.266;24.944;2023-05-19T08:10:14;99727.53;;;23.00;62.09
7376;BME280;3728;42.266;24.944;2023-05-19T08:12:41;99740.56;;;23.15;64.85
7376;BME280;3728;42.266;24.944;2023-05-19T08:15:09;99741.72;;;23.22;63.50
7376;BME280;3728;42.266;24.944;2023-05-19T08:17:37;99728.44;;;23.50;58.39
7376;BME280;3728;42.266;24.944;2023-05-19T08:20:05;99742.59;;;23.50;59.41
7376;BME280;3728;42.266;24.944;2023-05-19T08:22:35;99740.31;;;23.95;52.86
7376;BME280;3728;42.266;24.944;2023-05-19T08:25:03;99744.09;;;23.65;58.55
7376;BME280;3728;42.266;24.944;2023-05-19T08:27:31;99743.34;;;23.79;56.58
7376;BME280;3728;42.266;24.944;2023-05-19T08:30:02;99737.25;;;23.71;57.68
7376;BME280;3728;42.266;24.944;2023-05-19T08:32:32;99740.28;;;23.63;56.27
7376;BME280;3728;42.266;24.944;2023-05-19T08:35:00;99738.00;;;23.90;55.98
7376;BME280;3728;42.266;24.944;2023-05-19T08:37:27;99737.63;;;23.95;55.65
7376;BME280;3728;42.266;24.944;2023-05-19T08:39:58;99736.09;;;24.08;56.34
7376;BME280;3728;42.266;24.944;2023-05-19T08:42:27;99736.06;;;24.01;54.35
7376;BME280;3728;42.266;24.944;2023-05-19T08:44:54;99740.28;;;23.98;54.63
7376;BME280;3728;42.266;24.944;2023-05-19T08:47:22;99742.97;;;23.88;56.69
7376;BME280;3728;42.266;24.944;2023-05-19T08:50:02;99741.41;;;24.39;52.51
7376;BME280;3728;42.266;24.944;2023-05-19T08:52:55;99740.63;;;24.46;53.86
7376;BME280;3728;42.266;24.944;2023-05-19T08:56:05;99747.00;;;24.73;53.16
7376;BME280;3728;42.266;24.944;2023-05-19T08:58:39;99734.78;;;24.69;52.02
7376;BME280;3728;42.266;24.944;2023-05-19T09:01:12;99738.59;;;24.71;51.69
7376;BME280;3728;42.266;24.944;2023-05-19T09:03:44;99733.28;;;24.68;51.68
7376;BME280;3728;42.266;24.944;2023-05-19T09:06:15;99722.16;;;24.80;50.83
7376;BME280;3728;42.266;24.944;2023-05-19T09:08:43;99722.47;;;24.92;51.56
7376;BME280;3728;42.266;24.944;2023-05-19T09:11:11;99724.91;;;24.48;51.62
7376;BME280;3728;42.266;24.944;2023-05-19T09:13:39;99723.38;;;24.54;53.78
7376;BME280;3728;42.266;24.944;2023-05-19T09:16:07;99724.88;;;24.62;52.81
7376;BME280;3728;42.266;24.944;2023-05-19T09:18:37;99722.50;;;24.89;51.48
7376;BME280;3728;42.266;24.944;2023-05-19T09:21:08;99708.81;;;24.66;53.33
7376;BME280;3728;42.266;24.944;2023-05-19T09:23:36;99716.06;;;24.65;50.85
7376;BME280;3728;42.266;24.944;2023-05-19T09:26:04;99720.41;;;24.27;52.36
7376;BME280;3728;42.266;24.944;2023-05-19T09:28:35;99722.31;;;23.99;52.08
7376;BME280;3728;42.266;24.944;2023-05-19T09:31:05;99716.97;;;23.77;50.93
7376;BME280;3728;42.266;24.944;2023-05-19T09:33:38;99714.69;;;23.62;52.79
7376;BME280;3728;42.266;24.944;2023-05-19T09:36:12;99721.19;;;23.50;53.28
7376;BME280;3728;42.266;24.944;2023-05-19T09:38:40;99720.75;;;23.34;55.95
7376;BME280;3728;42.266;24.944;2023-05-19T09:41:08;99716.97;;;23.39;52.90
7376;BME280;3728;42.266;24.944;2023-05-19T09:43:35;99718.13;;;24.01;49.35
7376;BME280;3728;42.266;24.944;2023-05-19T09:46:07;99712.03;;;23.62;51.38
7376;BME280;3728;42.266;24.944;2023-05-19T09:48:39;99717.38;;;23.76;51.42
7376;BME280;3728;42.266;24.944;2023-05-19T09:51:08;99712.41;;;23.67;54.28
7376;BME280;3728;42.266;24.944;2023-05-19T09:53:36;99710.09;;;23.69;52.26
7376;BME280;3728;42.266;24.944;2023-05-19T09:56:07;99707.41;;;23.83;52.78
7376;BME280;3728;42.266;24.944;2023-05-19T09:58:35;99710.09;;;23.83;51.69
7376;BME280;3728;42.266;24.944;2023-05-19T10:01:05;99706.22;;;24.34;51.06
7376;BME280;3728;42.266;24.944;2023-05-19T10:03:33;99710.41;;;24.49;52.71
7376;BME280;3728;42.266;24.944;2023-05-19T10:06:03;99704.34;;;25.14;53.05
7376;BME280;3728;42.266;24.944;2023-05-19T10:08:32;99716.88;;;25.86;52.43
7376;BME280;3728;42.266;24.944;2023-05-19T10:11:02;99707.53;;;26.01;47.46
7376;BME280;3728;42.266;24.944;2023-05-19T10:13:30;99713.06;;;25.84;48.60
7376;BME280;3728;42.266;24.944;2023-05-19T10:15:58;99708.91;;;25.79;47.74
7376;BME280;3728;42.266;24.944;2023-05-19T10:18:29;99709.44;;;26.41;47.82
7376;BME280;3728;42.266;24.944;2023-05-19T10:20:57;99706.53;;;26.93;45.44
7376;BME280;3728;42.266;24.944;2023-05-19T10:23:26;99709.00;;;27.07;43.76
7376;BME280;3728;42.266;24.944;2023-05-19T10:25:56;99703.22;;;27.39;42.98
7376;BME280;3728;42.266;24.944;2023-05-19T10:28:33;99700.41;;;27.69;42.17
7376;BME280;3728;42.266;24.944;2023-05-19T10:31:06;99698.28;;;27.80;42.25
7376;BME280;3728;42.266;24.944;2023-05-19T10:33:55;99704.53;;;27.97;41.24
7376;BME280;3728;42.266;24.944;2023-05-19T10:36:49;99706.53;;;27.93;40.83
7376;BME280;3728;42.266;24.944;2023-05-19T10:39:41;99696.34;;;28.04;38.83
7376;BME280;3728;42.266;24.944;2023-05-19T10:47:44;99700.78;;;28.33;40.58
7376;BME280;3728;42.266;24.944;2023-05-19T10:50:12;99700.38;;;28.55;38.14
7376;BME280;3728;42.266;24.944;2023-05-19T10:52:43;99701.22;;;28.52;38.85
7376;BME280;3728;42.266;24.944;2023-05-19T10:55:11;99696.66;;;28.48;38.37
7376;BME280;3728;42.266;24.944;2023-05-19T10:57:53;99689.75;;;28.67;37.70
7376;BME280;3728;42.266;24.944;2023-05-19T11:00:28;99688.28;;;28.82;38.53
7376;BME280;3728;42.266;24.944;2023-05-19T11:03:14;99693.97;;;28.68;38.52
7376;BME280;3728;42.266;24.944;2023-05-19T11:05:44;99688.03;;;28.93;36.57
7376;BME280;3728;42.266;24.944;2023-05-19T11:08:11;99682.25;;;29.10;37.16
7376;BME280;3728;42.266;24.944;2023-05-19T11:10:43;99690.47;;;28.87;37.33
7376;BME280;3728;42.266;24.944;2023-05-19T11:13:18;99683.06;;;28.91;37.55
7376;BME280;3728;42.266;24.944;2023-05-19T11:15:48;99680.97;;;29.15;36.78
7376;BME280;3728;42.266;24.944;2023-05-19T11:18:17;99690.53;;;29.20;37.81
7376;BME280;3728;42.266;24.944;2023-05-19T11:20:54;99676.03;;;29.46;35.31
7376;BME280;3728;42.266;24.944;2023-05-19T11:23:24;99678.97;;;29.51;34.39
7376;BME280;3728;42.266;24.944;2023-05-19T11:25:52;99679.56;;;29.59;35.18
7376;BME280;3728;42.266;24.944;2023-05-19T11:28:22;99679.72;;;29.84;34.18
7376;BME280;3728;42.266;24.944;2023-05-19T11:30:56;99662.09;;;29.79;34.02
7376;BME280;3728;42.266;24.944;2023-05-19T11:33:25;99667.19;;;29.29;34.81
7376;BME280;3728;42.266;24.944;2023-05-19T11:35:55;99664.31;;;28.68;35.92
7376;BME280;3728;42.266;24.944;2023-05-19T11:38:25;99668.69;;;28.23;37.55
7376;BME280;3728;42.266;24.944;2023-05-19T11:40:55;99666.63;;;28.30;37.01
7376;BME280;3728;42.266;24.944;2023-05-19T11:43:23;99663.56;;;28.68;35.70
7376;BME280;3728;42.266;24.944;2023-05-19T11:45:53;99659.47;;;28.95;35.93
7376;BME280;3728;42.266;24.944;2023-05-19T11:48:21;99672.97;;;29.11;34.78
7376;BME280;3728;42.266;24.944;2023-05-19T11:50:50;99667.28;;;29.42;36.34
7376;BME280;3728;42.266;24.944;2023-05-19T11:53:18;99662.03;;;29.51;35.56
7376;BME280;3728;42.266;24.944;2023-05-19T11:55:47;99667.09;;;29.94;36.38
7376;BME280;3728;42.266;24.944;2023-05-19T11:58:16;99665.88;;;29.82;32.39
7376;BME280;3728;42.266;24.944;2023-05-19T12:00:44;99667.03;;;29.97;32.68
7376;BME280;3728;42.266;24.944;2023-05-19T12:03:13;99659.75;;;29.94;33.63
7376;BME280;3728;42.266;24.944;2023-05-19T12:05:44;99662.66;;;29.87;33.62
7376;BME280;3728;42.266;24.944;2023-05-19T12:08:17;99658.72;;;30.04;31.66
7376;BME280;3728;42.266;24.944;2023-05-19T12:10:48;99658.09;;;30.13;32.64
7376;BME280;3728;42.266;24.944;2023-05-19T12:13:20;99642.53;;;30.04;32.03
7376;BME280;3728;42.266;24.944;2023-05-19T12:15:50;99646.25;;;29.94;34.71
7376;BME280;3728;42.266;24.944;2023-05-19T12:18:19;99642.59;;;29.88;32.98
7376;BME280;3728;42.266;24.944;2023-05-19T12:20:47;99639.56;;;29.70;34.74
7376;BME280;3728;42.266;24.944;2023-05-19T12:23:14;99637.19;;;29.27;33.98
7376;BME280;3728;42.266;24.944;2023-05-19T12:25:42;99645.16;;;29.31;34.68
7376;BME280;3728;42.266;24.944;2023-05-19T12:28:10;99649.38;;;29.48;35.23
7376;BME280;3728;42.266;24.944;2023-05-19T12:30:37;99646.88;;;29.86;34.28
7376;BME280;3728;42.266;24.944;2023-05-19T12:33:07;99645.56;;;30.06;34.10
7376;BME280;3728;42.266;24.944;2023-05-19T12:35:36;99647.13;;;30.32;32.29
7376;BME280;3728;42.266;24.944;2023-05-19T12:38:05;99643.09;;;30.78;34.41
7376;BME280;3728;42.266;24.944;2023-05-19T12:40:34;99641.16;;;30.91;33.79
7376;BME280;3728;42.266;24.944;2023-05-19T12:43:04;99635.75;;;31.04;33.74
7376;BME280;3728;42.266;24.944;2023-05-19T12:45:35;99636.63;;;30.88;32.31
7376;BME280;3728;42.266;24.944;2023-05-19T12:48:10;99639.09;;;30.83;32.10
7376;BME280;3728;42.266;24.944;2023-05-19T12:50:38;99628.91;;;30.87;30.93
7376;BME280;3728;42.266;24.944;2023-05-19T12:53:12;99633.31;;;31.44;32.10
7376;BME280;3728;42.266;24.944;2023-05-19T12:55:41;99633.03;;;31.17;31.59
7376;BME280;3728;42.266;24.944;2023-05-19T12:58:14;99632.22;;;31.41;31.33
7376;BME280;3728;42.266;24.944;2023-05-19T13:00:43;99622.75;;;30.74;32.02
7376;BME280;3728;42.266;24.944;2023-05-19T13:03:17;99623.94;;;30.73;32.46
7376;BME280;3728;42.266;24.944;2023-05-19T13:05:48;99621.06;;;30.26;32.08
7376;BME280;3728;42.266;24.944;2023-05-19T13:08:18;99625.44;;;30.49;32.02
7376;BME280;3728;42.266;24.944;2023-05-19T13:10:47;99622.97;;;30.79;33.05
7376;BME280;3728;42.266;24.944;2023-05-19T13:13:15;99630.34;;;30.91;31.46
7376;BME280;3728;42.266;24.944;2023-05-19T13:15:44;99634.13;;;30.94;30.94
7376;BME280;3728;42.266;24.944;2023-05-19T13:18:14;99632.16;;;30.44;33.88
7376;BME280;3728;42.266;24.944;2023-05-19T13:20:44;99624.84;;;29.87;34.17
7376;BME280;3728;42.266;24.944;2023-05-19T13:23:13;99623.25;;;29.29;36.72
7376;BME280;3728;42.266;24.944;2023-05-19T13:25:41;99624.06;;;28.93;36.50
7376;BME280;3728;42.266;24.944;2023-05-19T13:28:09;99625.00;;;28.87;37.65
7376;BME280;3728;42.266;24.944;2023-05-19T13:30:38;99622.38;;;29.48;37.35
7376;BME280;3728;42.266;24.944;2023-05-19T13:33:07;99624.56;;;29.98;32.74
7376;BME280;3728;42.266;24.944;2023-05-19T13:35:35;99633.56;;;30.36;32.35
7376;BME280;3728;42.266;24.944;2023-05-19T13:38:04;99628.50;;;30.76;31.91
7376;BME280;3728;42.266;24.944;2023-05-19T13:40:33;99633.50;;;30.90;29.87
7376;BME280;3728;42.266;24.944;2023-05-19T13:43:02;99633.69;;;30.83;30.17